sensor_id;sensor_type;location;lat;lon;timestamp;pressure;altitude;pressure_sealevel;temperature;humidity
39449;BME280;25151;45.566;9.382;2022-07-06T00:01:42;99697.38;;;28.10;43.30
39449;BME280;25151;45.566;9.382;2022-07-06T00:04:43;99704.56;;;28.11;43.57
39449;BME280;25151;45.566;9.382;2022-07-06T00:07:44;99703.03;;;28.10;43.40
39449;BME280;25151;45.566;9.382;2022-07-06T00:10:44;99709.47;;;28.10;43.38
39449;BME280;25151;45.566;9.382;2022-07-06T00:13:45;99710.25;;;28.11;43.39
39449;BME280;25151;45.566;9.382;2022-07-06T00:16:46;99710.25;;;28.11;43.68
39449;BME280;25151;45.566;9.382;2022-07-06T00:19:47;99709.47;;;28.10;43.70
39449;BME280;25151;45.566;9.382;2022-07-06T00:22:47;99713.09;;;28.11;43.51
39449;BME280;25151;45.566;9.382;2022-07-06T00:25:48;99709.47;;;28.10;43.61
39449;BME280;25151;45.566;9.382;2022-07-06T00:28:49;99706.66;;;28.10;43.58
39449;BME280;25151;45.566;9.382;2022-07-06T00:31:50;99710.25;;;28.11;43.85
39449;BME280;25151;45.566;9.382;2022-07-06T00:34:50;99707.41;;;28.11;44.00
39449;BME280;25151;45.566;9.382;2022-07-06T00:37:51;99711.81;;;28.12;43.84
39449;BME280;25151;45.566;9.382;2022-07-06T00:40:52;99710.25;;;28.11;44.12
39449;BME280;25151;45.566;9.382;2022-07-06T00:43:55;99707.41;;;28.11;44.14
39449;BME280;25151;45.566;9.382;2022-07-06T00:46:56;99714.66;;;28.12;43.67
39449;BME280;25151;45.566;9.382;2022-07-06T00:49:58;99707.41;;;28.11;44.20
39449;BME280;25151;45.566;9.382;2022-07-06T00:53:14;99705.38;;;28.11;44.18
39449;BME280;25151;45.566;9.382;2022-07-06T00:56:14;99705.38;;;28.11;44.30
39449;BME280;25151;45.566;9.382;2022-07-06T00:59:15;99717.50;;;28.12;44.34
39449;BME280;25151;45.566;9.382;2022-07-06T01:02:16;99715.16;;;28.10;44.16
39449;BME280;25151;45.566;9.382;2022-07-06T01:05:18;99723.16;;;28.12;44.40
39449;BME280;25151;45.566;9.382;2022-07-06T01:08:20;99717.50;;;28.12;44.10
39449;BME280;25151;45.566;9.382;2022-07-06T01:11:21;99717.50;;;28.12;44.59
39449;BME280;25151;45.566;9.382;2022-07-06T01:14:22;99715.91;;;28.11;44.65
39449;BME280;25151;45.566;9.382;2022-07-06T01:17:23;99720.34;;;28.12;44.21
39449;BME280;25151;45.566;9.382;2022-07-06T01:20:25;99715.44;;;28.12;44.40
39449;BME280;25151;45.566;9.382;2022-07-06T01:23:26;99704.56;;;28.11;44.22
39449;BME280;25151;45.566;9.382;2022-07-06T01:26:27;99707.69;;;28.13;44.39
39449;BME280;25151;45.566;9.382;2022-07-06T01:29:28;99704.88;;;28.13;44.87
39449;BME280;25151;45.566;9.382;2022-07-06T01:32:29;99714.66;;;28.12;44.77
39449;BME280;25151;45.566;9.382;2022-07-06T01:35:31;99714.13;;;28.13;44.44
39449;BME280;25151;45.566;9.382;2022-07-06T01:38:45;99712.09;;;28.14;44.71
39449;BME280;25151;45.566;9.382;2022-07-06T01:41:46;99703.22;;;27.69;45.06
39449;BME280;25151;45.566;9.382;2022-07-06T01:44:47;99706.75;;;27.12;44.78
39449;BME280;25151;45.566;9.382;2022-07-06T01:47:47;99706.50;;;26.89;44.98
39449;BME280;25151;45.566;9.382;2022-07-06T01:50:48;99705.47;;;26.92;44.78
39449;BME280;25151;45.566;9.382;2022-07-06T01:53:49;99710.25;;;27.01;43.99
39449;BME280;25151;45.566;9.382;2022-07-06T01:56:50;99710.50;;;27.03;43.97
39449;BME280;25151;45.566;9.382;2022-07-06T01:59:50;99702.81;;;26.83;43.63
39449;BME280;25151;45.566;9.382;2022-07-06T02:02:51;99708.81;;;26.91;43.81
39449;BME280;25151;45.566;9.382;2022-07-06T02:05:52;99715.75;;;26.90;43.31
39449;BME280;25151;45.566;9.382;2022-07-06T02:08:52;99721.78;;;26.77;43.74
39449;BME280;25151;45.566;9.382;2022-07-06T02:11:54;99713.97;;;26.72;43.89
39449;BME280;25151;45.566;9.382;2022-07-06T02:14:54;99715.84;;;26.75;43.42
39449;BME280;25151;45.566;9.382;2022-07-06T02:17:55;99718.38;;;26.93;42.89
39449;BME280;25151;45.566;9.382;2022-07-06T02:20:56;99722.34;;;26.81;42.95
39449;BME280;25151;45.566;9.382;2022-07-06T02:23:57;99728.94;;;26.93;42.86
39449;BME280;25151;45.566;9.382;2022-07-06T02:26:58;99735.47;;;26.84;43.79
39449;BME280;25151;45.566;9.382;2022-07-06T02:29:58;99742.41;;;26.83;43.64
39449;BME280;25151;45.566;9.382;2022-07-06T02:32:59;99743.34;;;26.75;43.60
39449;BME280;25151;45.566;9.382;2022-07-06T02:36:00;99746.94;;;26.75;42.96
39449;BME280;25151;45.566;9.382;2022-07-06T02:39:00;99747.09;;;26.86;42.69
39449;BME280;25151;45.566;9.382;2022-07-06T02:42:01;99750.28;;;26.73;42.69
39449;BME280;25151;45.566;9.382;2022-07-06T02:45:02;99742.41;;;26.83;42.35
39449;BME280;25151;45.566;9.382;2022-07-06T02:48:03;99748.66;;;26.87;42.32
39449;BME280;25151;45.566;9.382;2022-07-06T02:51:04;99752.53;;;26.69;44.27
39449;BME280;25151;45.566;9.382;2022-07-06T02:54:04;99762.34;;;26.54;42.85
39449;BME280;25151;45.566;9.382;2022-07-06T02:57:05;99775.22;;;26.55;43.15
39449;BME280;25151;45.566;9.382;2022-07-06T03:00:07;99774.59;;;26.65;42.85
39449;BME280;25151;45.566;9.382;2022-07-06T03:03:08;99788.31;;;26.72;43.49
39449;BME280;25151;45.566;9.382;2022-07-06T03:06:09;99793.31;;;26.63;43.06
39449;BME280;25151;45.566;9.382;2022-07-06T03:09:10;99803.25;;;26.73;42.62
39449;BME280;25151;45.566;9.382;2022-07-06T03:12:11;99804.22;;;26.70;43.75
39449;BME280;25151;45.566;9.382;2022-07-06T03:15:23;99813.91;;;26.48;43.42
39449;BME280;25151;45.566;9.382;2022-07-06T03:18:24;99809.00;;;26.64;42.90
39449;BME280;25151;45.566;9.382;2022-07-06T03:21:25;99820.97;;;26.53;43.71
39449;BME280;25151;45.566;9.382;2022-07-06T03:24:25;99819.75;;;26.60;43.58
39449;BME280;25151;45.566;9.382;2022-07-06T03:27:26;99815.88;;;26.57;42.53
39449;BME280;25151;45.566;9.382;2022-07-06T03:30:26;99812.53;;;26.59;43.50
39449;BME280;25151;45.566;9.382;2022-07-06T03:33:27;99818.19;;;26.59;43.50
39449;BME280;25151;45.566;9.382;2022-07-06T03:36:28;99818.97;;;26.59;42.60
39449;BME280;25151;45.566;9.382;2022-07-06T03:39:29;99822.13;;;26.46;42.32
39449;BME280;25151;45.566;9.382;2022-07-06T03:42:29;99827.97;;;26.43;42.70
39449;BME280;25151;45.566;9.382;2022-07-06T03:45:30;99832.53;;;26.55;42.20
39449;BME280;25151;45.566;9.382;2022-07-06T03:48:31;99834.59;;;26.55;42.29
39449;BME280;25151;45.566;9.382;2022-07-06T03:51:32;99829.00;;;26.60;42.05
39449;BME280;25151;45.566;9.382;2022-07-06T03:54:34;99835.75;;;26.63;42.03
39449;BME280;25151;45.566;9.382;2022-07-06T03:57:41;99831.63;;;26.64;42.42
39449;BME280;25151;45.566;9.382;2022-07-06T04:00:41;99840.41;;;26.66;42.46
39449;BME280;25151;45.566;9.382;2022-07-06T04:03:45;99846.28;;;26.62;42.67
39449;BME280;25151;45.566;9.382;2022-07-06T04:06:46;99846.34;;;26.68;42.27
39449;BME280;25151;45.566;9.382;2022-07-06T04:09:47;99839.16;;;26.67;42.50
39449;BME280;25151;45.566;9.382;2022-07-06T04:12:47;99842.75;;;26.67;42.08
39449;BME280;25151;45.566;9.382;2022-07-06T04:15:51;99839.44;;;26.69;42.45
39449;BME280;25151;45.566;9.382;2022-07-06T04:18:52;99851.53;;;26.69;42.23
39449;BME280;25151;45.566;9.382;2022-07-06T04:21:52;99853.50;;;26.63;42.54
39449;BME280;25151;45.566;9.382;2022-07-06T04:24:53;99852.72;;;26.63;42.52
39449;BME280;25151;45.566;9.382;2022-07-06T04:27:54;99866.34;;;26.64;42.40
39449;BME280;25151;45.566;9.382;2022-07-06T04:30:54;99861.28;;;26.68;42.50
39449;BME280;25151;45.566;9.382;2022-07-06T04:33:55;99867.94;;;26.65;42.26
39449;BME280;25151;45.566;9.382;2022-07-06T04:36:55;99868.41;;;26.64;42.17
39449;BME280;25151;45.566;9.382;2022-07-06T04:39:56;99865.88;;;26.66;42.13
39449;BME280;25151;45.566;9.382;2022-07-06T04:42:57;99868.91;;;26.62;42.13
39449;BME280;25151;45.566;9.382;2022-07-06T04:45:57;99877.84;;;26.61;42.20
39449;BME280;25151;45.566;9.382;2022-07-06T04:48:58;99879.72;;;26.64;41.88
39449;BME280;25151;45.566;9.382;2022-07-06T04:51:59;99877.84;;;26.61;41.94
39449;BME280;25151;45.566;9.382;2022-07-06T04:54:59;99889.78;;;26.65;41.63
39449;BME280;25151;45.566;9.382;2022-07-06T04:58:00;99896.22;;;26.65;41.69
39449;BME280;25151;45.566;9.382;2022-07-06T05:01:00;99890.75;;;26.62;41.57
39449;BME280;25151;45.566;9.382;2022-07-06T05:04:01;99904.00;;;26.56;41.80
39449;BME280;25151;45.566;9.382;2022-07-06T05:07:02;99898.94;;;26.60;41.66
39449;BME280;25151;45.566;9.382;2022-07-06T05:10:03;99905.94;;;26.64;41.32
39449;BME280;25151;45.566;9.382;2022-07-06T05:13:03;99911.03;;;26.60;41.55
39449;BME280;25151;45.566;9.382;2022-07-06T05:16:04;99918.72;;;26.60;41.46
39449;BME280;25151;45.566;9.382;2022-07-06T05:19:05;99916.88;;;26.57;41.80
39449;BME280;25151;45.566;9.382;2022-07-06T05:22:06;99914.34;;;26.59;41.39
39449;BME280;25151;45.566;9.382;2022-07-06T05:25:06;99919.03;;;26.62;41.21
39449;BME280;25151;45.566;9.382;2022-07-06T05:28:07;99916.22;;;26.62;41.45
39449;BME280;25151;45.566;9.382;2022-07-06T05:31:08;99913.38;;;26.62;41.55
39449;BME280;25151;45.566;9.382;2022-07-06T05:34:09;99920.59;;;26.63;41.21
39449;BME280;25151;45.566;9.382;2022-07-06T05:37:10;99927.53;;;26.62;41.28
39449;BME280;25151;45.566;9.382;2022-07-06T05:40:11;99941.66;;;26.62;41.43
39449;BME280;25151;45.566;9.382;2022-07-06T05:43:12;99933.94;;;26.62;41.22
39449;BME280;25151;45.566;9.382;2022-07-06T05:46:13;99941.06;;;26.58;41.11
39449;BME280;25151;45.566;9.382;2022-07-06T05:49:14;99949.84;;;26.60;41.68
39449;BME280;25151;45.566;9.382;2022-07-06T05:52:33;99947.72;;;26.55;41.53
39449;BME280;25151;45.566;9.382;2022-07-06T05:55:34;99953.94;;;26.59;41.12
39449;BME280;25151;45.566;9.382;2022-07-06T05:58:35;99963.00;;;26.63;41.44
39449;BME280;25151;45.566;9.382;2022-07-06T06:01:35;99966.81;;;26.60;41.57
39449;BME280;25151;45.566;9.382;2022-07-06T06:04:36;99960.13;;;26.92;41.05
39449;BME280;25151;45.566;9.382;2022-07-06T06:07:38;99965.00;;;27.07;41.03
39449;BME280;25151;45.566;9.382;2022-07-06T06:10:42;99973.38;;;27.16;40.75
39449;BME280;25151;45.566;9.382;2022-07-06T06:13:45;99969.88;;;27.21;40.97
39449;BME280;25151;45.566;9.382;2022-07-06T06:17:02;99972.78;;;27.27;41.01
39449;BME280;25151;45.566;9.382;2022-07-06T06:20:12;99974.34;;;27.28;40.83
39449;BME280;25151;45.566;9.382;2022-07-06T06:23:13;99972.56;;;27.30;41.02
39449;BME280;25151;45.566;9.382;2022-07-06T06:26:14;99973.66;;;27.33;40.81
39449;BME280;25151;45.566;9.382;2022-07-06T06:29:15;99981.13;;;27.36;41.27
39449;BME280;25151;45.566;9.382;2022-07-06T06:32:17;99973.44;;;27.36;41.10
39449;BME280;25151;45.566;9.382;2022-07-06T06:35:18;99982.22;;;27.38;40.92
39449;BME280;25151;45.566;9.382;2022-07-06T06:38:20;99985.34;;;27.40;41.13
39449;BME280;25151;45.566;9.382;2022-07-06T06:41:21;99989.72;;;27.41;41.31
39449;BME280;25151;45.566;9.382;2022-07-06T06:44:22;100006.22;;;27.43;41.33
39449;BME280;25151;45.566;9.382;2022-07-06T06:47:23;100000.09;;;27.44;41.82
39449;BME280;25151;45.566;9.382;2022-07-06T06:50:24;100012.75;;;27.49;41.64
39449;BME280;25151;45.566;9.382;2022-07-06T06:53:25;100013.03;;;27.51;41.70
39449;BME280;25151;45.566;9.382;2022-07-06T06:56:26;100026.72;;;27.53;41.63
39449;BME280;25151;45.566;9.382;2022-07-06T06:59:27;100029.81;;;27.55;41.66
39449;BME280;25151;45.566;9.382;2022-07-06T07:02:28;100027.75;;;27.55;42.18
39449;BME280;25151;45.566;9.382;2022-07-06T07:05:29;100029.81;;;27.55;42.26
39449;BME280;25151;45.566;9.382;2022-07-06T07:08:30;100032.94;;;27.57;42.15
39449;BME280;25151;45.566;9.382;2022-07-06T07:11:32;100040.44;;;27.60;42.12
39449;BME280;25151;45.566;9.382;2022-07-06T07:14:32;100037.34;;;27.58;42.36
39449;BME280;25151;45.566;9.382;2022-07-06T07:17:33;100047.19;;;27.62;42.83
39449;BME280;25151;45.566;9.382;2022-07-06T07:20:35;100027.34;;;27.62;42.61
39449;BME280;25151;45.566;9.382;2022-07-06T07:23:36;100029.69;;;27.64;42.64
39449;BME280;25151;45.566;9.382;2022-07-06T07:26:37;100026.38;;;27.65;42.71
39449;BME280;25151;45.566;9.382;2022-07-06T07:29:41;100031.25;;;27.65;43.03
39449;BME280;25151;45.566;9.382;2022-07-06T07:32:42;100020.50;;;27.69;42.94
39449;BME280;25151;45.566;9.382;2022-07-06T07:35:43;100023.03;;;27.67;43.13
39449;BME280;25151;45.566;9.382;2022-07-06T07:38:44;100020.19;;;27.67;43.37
39449;BME280;25151;45.566;9.382;2022-07-06T07:41:45;100029.25;;;27.71;43.42
39449;BME280;25151;45.566;9.382;2022-07-06T07:44:46;100028.00;;;27.72;43.39
39449;BME280;25151;45.566;9.382;2022-07-06T07:47:47;100024.69;;;27.74;43.54
39449;BME280;25151;45.566;9.382;2022-07-06T07:50:48;100026.72;;;27.73;43.46
39449;BME280;25151;45.566;9.382;2022-07-06T07:53:49;100035.53;;;27.75;43.45
39449;BME280;25151;45.566;9.382;2022-07-06T07:56:51;100028.31;;;27.74;43.63
39449;BME280;25151;45.566;9.382;2022-07-06T07:59:52;100032.00;;;27.80;43.35
39449;BME280;25151;45.566;9.382;2022-07-06T08:02:52;100036.09;;;27.79;43.92
39449;BME280;25151;45.566;9.382;2022-07-06T08:05:54;100033.56;;;27.81;43.62
39449;BME280;25151;45.566;9.382;2022-07-06T08:08:55;100039.22;;;27.81;43.75
39449;BME280;25151;45.566;9.382;2022-07-06T08:11:55;100034.13;;;27.85;43.94
39449;BME280;25151;45.566;9.382;2022-07-06T08:14:59;100032.56;;;27.84;44.22
39449;BME280;25151;45.566;9.382;2022-07-06T08:18:00;100026.91;;;27.84;44.12
39449;BME280;25151;45.566;9.382;2022-07-06T08:21:02;100026.91;;;27.84;44.21
39449;BME280;25151;45.566;9.382;2022-07-06T08:24:03;100026.91;;;27.84;44.05
39449;BME280;25151;45.566;9.382;2022-07-06T08:27:04;100026.41;;;27.86;44.27
39449;BME280;25151;45.566;9.382;2022-07-06T08:30:05;100022.28;;;27.87;44.01
39449;BME280;25151;45.566;9.382;2022-07-06T08:33:07;100019.47;;;27.87;44.32
39449;BME280;25151;45.566;9.382;2022-07-06T08:36:07;100013.78;;;27.87;44.14
39449;BME280;25151;45.566;9.382;2022-07-06T08:39:08;100019.47;;;27.87;44.50
39449;BME280;25151;45.566;9.382;2022-07-06T08:42:09;100017.41;;;27.87;44.26
39449;BME280;25151;45.566;9.382;2022-07-06T08:45:11;100013.31;;;27.88;44.37
39449;BME280;25151;45.566;9.382;2022-07-06T08:48:13;100017.69;;;27.89;44.46
39449;BME280;25151;45.566;9.382;2022-07-06T08:51:15;100018.47;;;27.90;44.28
39449;BME280;25151;45.566;9.382;2022-07-06T08:54:16;100014.34;;;27.91;44.20
39449;BME280;25151;45.566;9.382;2022-07-06T08:57:18;100016.41;;;27.90;44.54
39449;BME280;25151;45.566;9.382;2022-07-06T09:00:22;100008.69;;;27.91;44.56
39449;BME280;25151;45.566;9.382;2022-07-06T09:03:24;99998.94;;;27.92;44.74
39449;BME280;25151;45.566;9.382;2022-07-06T09:06:26;100002.03;;;27.94;44.67
39449;BME280;25151;45.566;9.382;2022-07-06T09:09:28;99999.72;;;27.92;44.29
39449;BME280;25151;45.566;9.382;2022-07-06T09:12:31;99997.13;;;27.94;44.65
39449;BME280;25151;45.566;9.382;2022-07-06T09:15:33;99989.91;;;27.93;44.48
39449;BME280;25151;45.566;9.382;2022-07-06T09:18:37;99992.25;;;27.95;44.89
39449;BME280;25151;45.566;9.382;2022-07-06T09:21:39;99993.06;;;27.96;44.87
39449;BME280;25151;45.566;9.382;2022-07-06T09:24:43;99987.38;;;27.96;44.61
39449;BME280;25151;45.566;9.382;2022-07-06T09:27:45;99988.94;;;27.97;44.88
39449;BME280;25151;45.566;9.382;2022-07-06T09:30:47;99980.44;;;27.97;44.64
39449;BME280;25151;45.566;9.382;2022-07-06T09:34:03;99987.66;;;27.98;44.82
39449;BME280;25151;45.566;9.382;2022-07-06T09:37:05;99976.31;;;27.98;45.16
39449;BME280;25151;45.566;9.382;2022-07-06T09:40:19;99975.81;;;27.99;45.24
39449;BME280;25151;45.566;9.382;2022-07-06T09:43:21;99972.97;;;27.99;45.09
39449;BME280;25151;45.566;9.382;2022-07-06T09:46:23;99962.13;;;27.98;44.91
39449;BME280;25151;45.566;9.382;2022-07-06T09:49:25;99975.81;;;27.99;45.25
39449;BME280;25151;45.566;9.382;2022-07-06T09:52:26;99968.09;;;28.00;45.23
39449;BME280;25151;45.566;9.382;2022-07-06T09:55:26;99978.16;;;28.01;45.35
39449;BME280;25151;45.566;9.382;2022-07-06T09:58:28;99976.88;;;28.02;45.12
39449;BME280;25151;45.566;9.382;2022-07-06T10:01:28;99979.72;;;28.02;45.35
39449;BME280;25151;45.566;9.382;2022-07-06T10:04:31;99975.59;;;28.03;45.43
39449;BME280;25151;45.566;9.382;2022-07-06T10:07:31;99974.34;;;28.04;45.56
39449;BME280;25151;45.566;9.382;2022-07-06T10:10:32;99977.16;;;28.04;45.37
39449;BME280;25151;45.566;9.382;2022-07-06T10:13:34;99969.44;;;28.04;45.71
39449;BME280;25151;45.566;9.382;2022-07-06T10:16:37;99963.00;;;28.04;45.40
39449;BME280;25151;45.566;9.382;2022-07-06T10:19:39;99971.50;;;28.04;45.63
39449;BME280;25151;45.566;9.382;2022-07-06T10:22:41;99961.72;;;28.05;45.39
39449;BME280;25151;45.566;9.382;2022-07-06T10:25:42;99963.25;;;28.06;45.50
39449;BME280;25151;45.566;9.382;2022-07-06T10:28:44;99970.47;;;28.07;45.64
39449;BME280;25151;45.566;9.382;2022-07-06T10:31:48;99973.31;;;28.07;45.96
39449;BME280;25151;45.566;9.382;2022-07-06T10:34:49;99964.31;;;28.08;45.63
39449;BME280;25151;45.566;9.382;2022-07-06T10:38:09;99957.38;;;28.09;46.04
39449;BME280;25151;45.566;9.382;2022-07-06T10:41:10;99957.81;;;28.02;48.20
39449;BME280;25151;45.566;9.382;2022-07-06T10:44:19;99969.00;;;27.91;46.71
39449;BME280;25151;45.566;9.382;2022-07-06T10:47:27;99957.78;;;27.76;46.39
39449;BME280;25151;45.566;9.382;2022-07-06T10:50:34;99956.50;;;27.77;46.15
39449;BME280;25151;45.566;9.382;2022-07-06T10:53:37;99951.53;;;27.72;45.94
39449;BME280;25151;45.566;9.382;2022-07-06T10:56:42;99947.88;;;27.71;45.37
39449;BME280;25151;45.566;9.382;2022-07-06T11:00:04;99941.38;;;27.65;44.92
39449;BME280;25151;45.566;9.382;2022-07-06T11:03:45;99954.63;;;27.54;44.57
39449;BME280;25151;45.566;9.382;2022-07-06T11:06:45;99940.09;;;27.46;44.57
39449;BME280;25151;45.566;9.382;2022-07-06T11:09:57;99941.66;;;27.47;44.08
39449;BME280;25151;45.566;9.382;2022-07-06T11:12:59;99931.66;;;27.52;43.49
39449;BME280;25151;45.566;9.382;2022-07-06T11:16:01;99932.22;;;27.35;43.31
39449;BME280;25151;45.566;9.382;2022-07-06T11:19:14;99930.41;;;27.32;42.89
39449;BME280;25151;45.566;9.382;2022-07-06T11:22:17;99933.91;;;27.27;42.34
39449;BME280;25151;45.566;9.382;2022-07-06T11:25:21;99927.00;;;27.28;42.88
39449;BME280;25151;45.566;9.382;2022-07-06T11:28:22;99921.63;;;27.30;42.44
39449;BME280;25151;45.566;9.382;2022-07-06T11:31:23;99923.16;;;27.31;42.16
39449;BME280;25151;45.566;9.382;2022-07-06T11:34:26;99918.06;;;27.35;42.07
39449;BME280;25151;45.566;9.382;2022-07-06T11:37:27;99900.53;;;27.31;40.98
39449;BME280;25151;45.566;9.382;2022-07-06T11:40:28;99906.38;;;27.28;41.39
39449;BME280;25151;45.566;9.382;2022-07-06T11:43:30;99896.84;;;27.25;41.10
39449;BME280;25151;45.566;9.382;2022-07-06T11:46:32;99895.00;;;27.22;41.68
39449;BME280;25151;45.566;9.382;2022-07-06T11:49:35;99893.94;;;27.40;41.61
39449;BME280;25151;45.566;9.382;2022-07-06T11:52:36;99887.78;;;27.41;41.20
39449;BME280;25151;45.566;9.382;2022-07-06T11:55:38;99886.72;;;27.39;41.27
39449;BME280;25151;45.566;9.382;2022-07-06T12:01:59;99869.78;;;27.24;41.12
39449;BME280;25151;45.566;9.382;2022-07-06T12:05:00;99866.97;;;27.44;41.01
39449;BME280;25151;45.566;9.382;2022-07-06T12:08:05;99857.59;;;27.59;40.90
39449;BME280;25151;45.566;9.382;2022-07-06T12:11:06;99857.19;;;27.66;40.81
39449;BME280;25151;45.566;9.382;2022-07-06T12:14:18;99857.56;;;27.74;40.96
39449;BME280;25151;45.566;9.382;2022-07-06T12:17:19;99856.56;;;27.77;40.94
39449;BME280;25151;45.566;9.382;2022-07-06T12:20:19;99859.19;;;27.80;40.82
39449;BME280;25151;45.566;9.382;2022-07-06T12:23:20;99845.28;;;27.82;41.10
39449;BME280;25151;45.566;9.382;2022-07-06T12:26:27;99845.56;;;27.84;41.30
39449;BME280;25151;45.566;9.382;2022-07-06T12:29:30;99848.94;;;27.88;41.50
39449;BME280;25151;45.566;9.382;2022-07-06T12:32:30;99834.78;;;27.88;41.29
39449;BME280;25151;45.566;9.382;2022-07-06T12:35:31;99829.38;;;27.90;41.37
39449;BME280;25151;45.566;9.382;2022-07-06T12:38:32;99822.44;;;27.91;41.50
39449;BME280;25151;45.566;9.382;2022-07-06T12:41:33;99814.22;;;27.93;41.81
39449;BME280;25151;45.566;9.382;2022-07-06T12:45:16;99814.75;;;27.98;41.63
39449;BME280;25151;45.566;9.382;2022-07-06T12:48:51;99818.88;;;27.97;41.81
39449;BME280;25151;45.566;9.382;2022-07-06T12:51:58;99808.31;;;27.97;42.09
39449;BME280;25151;45.566;9.382;2022-07-06T12:55:00;99795.69;;;27.98;42.07
39449;BME280;25151;45.566;9.382;2022-07-06T12:58:02;99802.16;;;27.99;42.01
39449;BME280;25151;45.566;9.382;2022-07-06T13:01:03;99799.31;;;27.99;42.08
39449;BME280;25151;45.566;9.382;2022-07-06T13:04:07;99790.31;;;28.00;42.16
39449;BME280;25151;45.566;9.382;2022-07-06T13:07:17;99785.44;;;28.01;42.35
39449;BME280;25151;45.566;9.382;2022-07-06T13:10:20;99782.09;;;28.02;42.21
39449;BME280;25151;45.566;9.382;2022-07-06T13:13:20;99782.84;;;28.03;42.42
39449;BME280;25151;45.566;9.382;2022-07-06T13:16:22;99778.22;;;28.00;42.57
39449;BME280;25151;45.566;9.382;2022-07-06T13:19:26;99772.81;;;28.02;42.56
39449;BME280;25151;45.566;9.382;2022-07-06T13:22:27;99770.25;;;28.04;42.43
39449;BME280;25151;45.566;9.382;2022-07-06T13:25:27;99768.97;;;28.05;42.99
39449;BME280;25151;45.566;9.382;2022-07-06T13:28:28;99766.13;;;28.05;42.99
39449;BME280;25151;45.566;9.382;2022-07-06T13:31:30;99759.94;;;28.06;42.75
39449;BME280;25151;45.566;9.382;2022-07-06T13:34:33;99753.81;;;28.08;43.13
39449;BME280;25151;45.566;9.382;2022-07-06T13:37:35;99756.13;;;28.09;42.83
39449;BME280;25151;45.566;9.382;2022-07-06T13:40:36;99746.84;;;28.09;42.96
39449;BME280;25151;45.566;9.382;2022-07-06T13:43:37;99754.06;;;28.10;42.95
39449;BME280;25151;45.566;9.382;2022-07-06T13:46:38;99738.59;;;28.11;43.17
39449;BME280;25151;45.566;9.382;2022-07-06T13:49:41;99735.75;;;28.11;43.17
39449;BME280;25151;45.566;9.382;2022-07-06T13:52:43;99732.16;;;28.10;43.16
39449;BME280;25151;45.566;9.382;2022-07-06T13:55:43;99726.78;;;28.12;43.24
39449;BME280;25151;45.566;9.382;2022-07-06T13:58:44;99722.88;;;28.10;43.20
39449;BME280;25151;45.566;9.382;2022-07-06T14:01:46;99724.72;;;28.13;43.57
39449;BME280;25151;45.566;9.382;2022-07-06T14:04:48;99717.75;;;28.14;43.62
39449;BME280;25151;45.566;9.382;2022-07-06T14:07:49;99710.78;;;28.15;43.46
39449;BME280;25151;45.566;9.382;2022-07-06T14:10:50;99706.41;;;28.14;43.82
39449;BME280;25151;45.566;9.382;2022-07-06T14:13:51;99702.28;;;28.15;43.37
39449;BME280;25151;45.566;9.382;2022-07-06T14:16:51;99702.56;;;28.17;43.75
39449;BME280;25151;45.566;9.382;2022-07-06T14:19:53;99698.44;;;28.18;43.62
39449;BME280;25151;45.566;9.382;2022-07-06T14:22:54;99700.00;;;28.19;43.66
39449;BME280;25151;45.566;9.382;2022-07-06T14:25:55;99698.44;;;28.18;43.82
39449;BME280;25151;45.566;9.382;2022-07-06T14:28:56;99693.06;;;28.20;43.93
39449;BME280;25151;45.566;9.382;2022-07-06T14:31:58;99691.78;;;28.21;44.03
39449;BME280;25151;45.566;9.382;2022-07-06T14:34:58;99681.97;;;28.22;44.19
39449;BME280;25151;45.566;9.382;2022-07-06T14:37:59;99684.81;;;28.22;44.33
39449;BME280;25151;45.566;9.382;2022-07-06T14:41:00;99683.53;;;28.23;44.52
39449;BME280;25151;45.566;9.382;2022-07-06T14:44:01;99678.66;;;28.24;43.96
39449;BME280;25151;45.566;9.382;2022-07-06T14:47:01;99680.19;;;28.25;44.66
39449;BME280;25151;45.566;9.382;2022-07-06T14:50:03;99680.97;;;28.25;44.50
39449;BME280;25151;45.566;9.382;2022-07-06T14:53:04;99678.41;;;28.27;44.59
39449;BME280;25151;45.566;9.382;2022-07-06T14:56:05;99674.78;;;28.27;44.65
39449;BME280;25151;45.566;9.382;2022-07-06T14:59:06;99669.91;;;28.27;44.80
39449;BME280;25151;45.566;9.382;2022-07-06T15:02:07;99667.09;;;28.27;44.70
39449;BME280;25151;45.566;9.382;2022-07-06T15:05:09;99670.16;;;28.29;44.56
39449;BME280;25151;45.566;9.382;2022-07-06T15:08:10;99666.03;;;28.30;44.50
39449;BME280;25151;45.566;9.382;2022-07-06T15:11:11;99671.72;;;28.30;44.78
39449;BME280;25151;45.566;9.382;2022-07-06T15:14:12;99667.34;;;28.29;44.46
39449;BME280;25151;45.566;9.382;2022-07-06T15:17:13;99654.69;;;28.30;44.97
39449;BME280;25151;45.566;9.382;2022-07-06T15:20:14;99650.59;;;28.31;44.54
39449;BME280;25151;45.566;9.382;2022-07-06T15:23:17;99651.38;;;28.32;44.68
39449;BME280;25151;45.566;9.382;2022-07-06T15:26:17;99657.03;;;28.32;44.39
39449;BME280;25151;45.566;9.382;2022-07-06T15:29:18;99649.31;;;28.32;44.69
39449;BME280;25151;45.566;9.382;2022-07-06T15:32:19;99659.38;;;28.33;44.71
39449;BME280;25151;45.566;9.382;2022-07-06T15:35:20;99647.25;;;28.33;44.89
39449;BME280;25151;45.566;9.382;2022-07-06T15:38:21;99637.97;;;28.32;45.16
39449;BME280;25151;45.566;9.382;2022-07-06T15:41:21;99655.25;;;28.34;45.15
39449;BME280;25151;45.566;9.382;2022-07-06T15:44:22;99643.91;;;28.34;45.11
39449;BME280;25151;45.566;9.382;2022-07-06T15:47:22;99649.56;;;28.34;45.17
39449;BME280;25151;45.566;9.382;2022-07-06T15:50:24;99651.91;;;28.36;45.05
39449;BME280;25151;45.566;9.382;2022-07-06T15:53:25;99644.22;;;28.36;45.03
39449;BME280;25151;45.566;9.382;2022-07-06T15:56:26;99635.69;;;28.36;45.32
39449;BME280;25151;45.566;9.382;2022-07-06T15:59:27;99641.38;;;28.36;45.32
39449;BME280;25151;45.566;9.382;2022-07-06T16:02:28;99642.91;;;28.37;44.94
39449;BME280;25151;45.566;9.382;2022-07-06T16:05:29;99643.19;;;28.39;45.62